sensor_id;sensor_type;location;lat;lon;timestamp;temperature;humidity
5059;DHT22;2548;52.050;11.036;2022-09-30T00:00:32;5.30;99.90
5059;DHT22;2548;52.050;11.036;2022-09-30T00:03:01;5.30;99.90
5059;DHT22;2548;52.050;11.036;2022-09-30T00:05:28;5.20;99.90
5059;DHT22;2548;52.050;11.036;2022-09-30T00:07:55;5.20;99.90
5059;DHT22;2548;52.050;11.036;2022-09-30T00:10:23;5.10;99.90
5059;DHT22;2548;52.050;11.036;2022-09-30T00:12:50;5.00;99.90
5059;DHT22;2548;52.050;11.036;2022-09-30T00:15:18;5.10;99.90
5059;DHT22;2548;52.050;11.036;2022-09-30T00:17:45;5.10;99.90
5059;DHT22;2548;52.050;11.036;2022-09-30T00:20:14;5.10;99.90
5059;DHT22;2548;52.050;11.036;2022-09-30T00:22:42;5.10;99.90
5059;DHT22;2548;52.050;11.036;2022-09-30T00:25:10;5.10;99.90
5059;DHT22;2548;52.050;11.036;2022-09-30T00:27:37;5.10;99.90
5059;DHT22;2548;52.050;11.036;2022-09-30T00:30:05;5.10;99.90
5059;DHT22;2548;52.050;11.036;2022-09-30T00:32:33;5.10;99.90
5059;DHT22;2548;52.050;11.036;2022-09-30T00:35:00;5.00;99.90
5059;DHT22;2548;52.050;11.036;2022-09-30T00:37:29;5.00;99.90
5059;DHT22;2548;52.050;11.036;2022-09-30T00:39:56;4.90;99.90
5059;DHT22;2548;52.050;11.036;2022-09-30T00:42:23;4.80;99.90
5059;DHT22;2548;52.050;11.036;2022-09-30T00:44:55;4.70;99.90
5059;DHT22;2548;52.050;11.036;2022-09-30T00:47:42;4.70;99.90
5059;DHT22;2548;52.050;11.036;2022-09-30T00:50:20;4.80;99.90
5059;DHT22;2548;52.050;11.036;2022-09-30T00:52:54;4.70;99.90
5059;DHT22;2548;52.050;11.036;2022-09-30T00:55:30;4.70;99.90
5059;DHT22;2548;52.050;11.036;2022-09-30T00:57:59;4.60;99.90
5059;DHT22;2548;52.050;11.036;2022-09-30T01:00:27;4.70;99.90
5059;DHT22;2548;52.050;11.036;2022-09-30T01:02:55;4.70;99.90
5059;DHT22;2548;52.050;11.036;2022-09-30T01:05:24;4.70;99.90
5059;DHT22;2548;52.050;11.036;2022-09-30T01:07:55;4.70;99.90
5059;DHT22;2548;52.050;11.036;2022-09-30T01:10:23;4.70;99.90
5059;DHT22;2548;52.050;11.036;2022-09-30T01:12:51;4.60;99.90
5059;DHT22;2548;52.050;11.036;2022-09-30T01:15:21;4.70;99.90
5059;DHT22;2548;52.050;11.036;2022-09-30T01:17:57;4.60;99.90
5059;DHT22;2548;52.050;11.036;2022-09-30T01:20:53;4.60;99.90
5059;DHT22;2548;52.050;11.036;2022-09-30T01:23:41;4.60;99.90
5059;DHT22;2548;52.050;11.036;2022-09-30T01:26:50;4.60;99.90
5059;DHT22;2548;52.050;11.036;2022-09-30T01:29:56;4.60;99.90
5059;DHT22;2548;52.050;11.036;2022-09-30T01:32:39;4.50;99.90
5059;DHT22;2548;52.050;11.036;2022-09-30T01:35:19;4.50;99.90
5059;DHT22;2548;52.050;11.036;2022-09-30T01:37:57;4.40;99.90
5059;DHT22;2548;52.050;11.036;2022-09-30T01:40:30;4.40;99.90
5059;DHT22;2548;52.050;11.036;2022-09-30T01:43:05;4.40;99.90
5059;DHT22;2548;52.050;11.036;2022-09-30T01:45:38;4.40;99.90
5059;DHT22;2548;52.050;11.036;2022-09-30T01:48:14;4.40;99.90
5059;DHT22;2548;52.050;11.036;2022-09-30T01:50:47;4.40;99.90
5059;DHT22;2548;52.050;11.036;2022-09-30T01:53:22;4.40;99.90
5059;DHT22;2548;52.050;11.036;2022-09-30T01:55:54;4.30;99.90
5059;DHT22;2548;52.050;11.036;2022-09-30T01:58:31;4.30;99.90
5059;DHT22;2548;52.050;11.036;2022-09-30T02:01:04;4.20;99.90
5059;DHT22;2548;52.050;11.036;2022-09-30T02:03:37;4.20;99.90
5059;DHT22;2548;52.050;11.036;2022-09-30T02:06:10;4.10;99.90
5059;DHT22;2548;52.050;11.036;2022-09-30T02:08:43;4.00;99.90
5059;DHT22;2548;52.050;11.036;2022-09-30T02:11:15;4.00;99.90
5059;DHT22;2548;52.050;11.036;2022-09-30T02:13:47;4.00;99.90
5059;DHT22;2548;52.050;11.036;2022-09-30T02:16:21;4.20;99.90
5059;DHT22;2548;52.050;11.036;2022-09-30T02:18:53;4.30;99.90
5059;DHT22;2548;52.050;11.036;2022-09-30T02:21:25;4.30;99.90
5059;DHT22;2548;52.050;11.036;2022-09-30T02:23:57;4.30;99.90
5059;DHT22;2548;52.050;11.036;2022-09-30T02:26:28;4.20;99.90
5059;DHT22;2548;52.050;11.036;2022-09-30T02:28:59;4.20;99.90
5059;DHT22;2548;52.050;11.036;2022-09-30T02:31:32;4.10;99.90
5059;DHT22;2548;52.050;11.036;2022-09-30T02:34:04;4.00;99.90
5059;DHT22;2548;52.050;11.036;2022-09-30T02:36:37;4.00;99.90
5059;DHT22;2548;52.050;11.036;2022-09-30T02:39:10;4.00;99.90
5059;DHT22;2548;52.050;11.036;2022-09-30T02:41:43;3.90;99.90
5059;DHT22;2548;52.050;11.036;2022-09-30T02:44:15;3.90;99.90
5059;DHT22;2548;52.050;11.036;2022-09-30T02:46:52;3.90;99.90
5059;DHT22;2548;52.050;11.036;2022-09-30T02:49:27;3.90;99.90
5059;DHT22;2548;52.050;11.036;2022-09-30T02:52:10;3.90;99.90
5059;DHT22;2548;52.050;11.036;2022-09-30T02:54:46;3.90;99.90
5059;DHT22;2548;52.050;11.036;2022-09-30T02:57:16;3.90;99.90
5059;DHT22;2548;52.050;11.036;2022-09-30T02:59:47;4.00;99.90
5059;DHT22;2548;52.050;11.036;2022-09-30T03:02:16;4.00;99.90
5059;DHT22;2548;52.050;11.036;2022-09-30T03:04:45;3.90;99.90
5059;DHT22;2548;52.050;11.036;2022-09-30T03:07:13;3.90;99.90
5059;DHT22;2548;52.050;11.036;2022-09-30T03:09:41;3.80;99.90
5059;DHT22;2548;52.050;11.036;2022-09-30T03:12:15;3.70;99.90
5059;DHT22;2548;52.050;11.036;2022-09-30T03:14:59;3.70;99.90
5059;DHT22;2548;52.050;11.036;2022-09-30T03:17:51;3.70;99.90
5059;DHT22;2548;52.050;11.036;2022-09-30T03:20:35;3.70;99.90
5059;DHT22;2548;52.050;11.036;2022-09-30T03:23:28;3.80;99.90
5059;DHT22;2548;52.050;11.036;2022-09-30T03:26:13;3.80;99.90
5059;DHT22;2548;52.050;11.036;2022-09-30T03:28:49;3.70;99.90
5059;DHT22;2548;52.050;11.036;2022-09-30T03:31:24;3.60;99.90
5059;DHT22;2548;52.050;11.036;2022-09-30T03:33:58;3.60;99.90
5059;DHT22;2548;52.050;11.036;2022-09-30T03:36:35;3.60;99.90
5059;DHT22;2548;52.050;11.036;2022-09-30T03:39:12;3.50;99.90
5059;DHT22;2548;52.050;11.036;2022-09-30T03:41:45;3.40;99.90
5059;DHT22;2548;52.050;11.036;2022-09-30T03:44:18;3.40;99.90
5059;DHT22;2548;52.050;11.036;2022-09-30T03:46:51;3.30;99.90
5059;DHT22;2548;52.050;11.036;2022-09-30T03:49:22;3.30;99.90
5059;DHT22;2548;52.050;11.036;2022-09-30T03:51:53;3.30;99.90
5059;DHT22;2548;52.050;11.036;2022-09-30T03:54:21;3.30;99.90
5059;DHT22;2548;52.050;11.036;2022-09-30T03:56:49;3.30;99.90
5059;DHT22;2548;52.050;11.036;2022-09-30T03:59:21;3.20;99.90
5059;DHT22;2548;52.050;11.036;2022-09-30T04:01:49;3.20;99.90
5059;DHT22;2548;52.050;11.036;2022-09-30T04:04:16;3.10;99.90
5059;DHT22;2548;52.050;11.036;2022-09-30T04:06:44;3.10;99.90
5059;DHT22;2548;52.050;11.036;2022-09-30T04:09:13;3.10;99.90
5059;DHT22;2548;52.050;11.036;2022-09-30T04:11:40;3.20;99.90
5059;DHT22;2548;52.050;11.036;2022-09-30T04:14:07;3.20;99.90
5059;DHT22;2548;52.050;11.036;2022-09-30T04:16:35;3.10;99.90
5059;DHT22;2548;52.050;11.036;2022-09-30T04:19:02;3.10;99.90
5059;DHT22;2548;52.050;11.036;2022-09-30T04:21:29;3.10;99.90
5059;DHT22;2548;52.050;11.036;2022-09-30T04:23:57;3.10;99.90
5059;DHT22;2548;52.050;11.036;2022-09-30T04:26:25;3.10;99.90
5059;DHT22;2548;52.050;11.036;2022-09-30T04:28:53;3.20;99.90
5059;DHT22;2548;52.050;11.036;2022-09-30T04:31:23;3.30;99.90
5059;DHT22;2548;52.050;11.036;2022-09-30T04:33:51;3.30;99.90
5059;DHT22;2548;52.050;11.036;2022-09-30T04:36:18;3.20;99.90
5059;DHT22;2548;52.050;11.036;2022-09-30T04:38:46;3.10;99.90
5059;DHT22;2548;52.050;11.036;2022-09-30T04:41:14;3.10;99.90
5059;DHT22;2548;52.050;11.036;2022-09-30T04:43:44;3.00;99.90
5059;DHT22;2548;52.050;11.036;2022-09-30T04:46:11;2.90;99.90
5059;DHT22;2548;52.050;11.036;2022-09-30T04:48:39;2.90;99.90
5059;DHT22;2548;52.050;11.036;2022-09-30T04:51:10;2.80;99.90
5059;DHT22;2548;52.050;11.036;2022-09-30T04:53:38;2.80;99.90
5059;DHT22;2548;52.050;11.036;2022-09-30T04:56:06;2.80;99.90
5059;DHT22;2548;52.050;11.036;2022-09-30T04:58:33;2.80;99.90
5059;DHT22;2548;52.050;11.036;2022-09-30T05:01:04;2.80;99.90
5059;DHT22;2548;52.050;11.036;2022-09-30T05:03:32;2.80;99.90
5059;DHT22;2548;52.050;11.036;2022-09-30T05:05:59;2.80;99.90
5059;DHT22;2548;52.050;11.036;2022-09-30T05:08:27;2.80;99.90
5059;DHT22;2548;52.050;11.036;2022-09-30T05:10:55;2.80;99.90
5059;DHT22;2548;52.050;11.036;2022-09-30T05:13:23;2.80;99.90
5059;DHT22;2548;52.050;11.036;2022-09-30T05:15:51;2.70;99.90
5059;DHT22;2548;52.050;11.036;2022-09-30T05:18:20;2.70;99.90
5059;DHT22;2548;52.050;11.036;2022-09-30T05:20:48;2.70;99.90
5059;DHT22;2548;52.050;11.036;2022-09-30T05:23:16;2.70;99.90
5059;DHT22;2548;52.050;11.036;2022-09-30T05:25:44;2.70;99.90
5059;DHT22;2548;52.050;11.036;2022-09-30T05:28:12;2.70;99.90
5059;DHT22;2548;52.050;11.036;2022-09-30T05:30:40;2.70;99.90
5059;DHT22;2548;52.050;11.036;2022-09-30T05:33:09;2.60;99.90
5059;DHT22;2548;52.050;11.036;2022-09-30T05:35:38;2.50;99.90
5059;DHT22;2548;52.050;11.036;2022-09-30T05:38:07;2.50;99.90
5059;DHT22;2548;52.050;11.036;2022-09-30T05:40:36;2.50;99.90
5059;DHT22;2548;52.050;11.036;2022-09-30T05:43:04;2.50;99.90
5059;DHT22;2548;52.050;11.036;2022-09-30T05:45:32;2.50;99.90
5059;DHT22;2548;52.050;11.036;2022-09-30T05:48:01;2.60;99.90
5059;DHT22;2548;52.050;11.036;2022-09-30T05:50:28;2.60;99.90
5059;DHT22;2548;52.050;11.036;2022-09-30T05:52:57;2.70;99.90
5059;DHT22;2548;52.050;11.036;2022-09-30T05:55:24;2.80;99.90
5059;DHT22;2548;52.050;11.036;2022-09-30T05:57:52;2.80;99.90
5059;DHT22;2548;52.050;11.036;2022-09-30T06:00:19;2.80;99.90
5059;DHT22;2548;52.050;11.036;2022-09-30T06:02:50;2.80;99.90
5059;DHT22;2548;52.050;11.036;2022-09-30T06:05:18;2.80;99.90
5059;DHT22;2548;52.050;11.036;2022-09-30T06:07:47;2.90;99.90
5059;DHT22;2548;52.050;11.036;2022-09-30T06:10:16;3.10;99.90
5059;DHT22;2548;52.050;11.036;2022-09-30T06:12:44;3.20;99.90
5059;DHT22;2548;52.050;11.036;2022-09-30T06:15:11;3.30;99.90
5059;DHT22;2548;52.050;11.036;2022-09-30T06:17:38;3.20;99.90
5059;DHT22;2548;52.050;11.036;2022-09-30T06:20:08;3.20;99.90
5059;DHT22;2548;52.050;11.036;2022-09-30T06:22:36;3.20;99.90
5059;DHT22;2548;52.050;11.036;2022-09-30T06:25:04;3.20;99.90
5059;DHT22;2548;52.050;11.036;2022-09-30T06:27:33;3.30;99.90
5059;DHT22;2548;52.050;11.036;2022-09-30T06:30:00;3.40;99.90
5059;DHT22;2548;52.050;11.036;2022-09-30T06:32:28;3.60;99.90
5059;DHT22;2548;52.050;11.036;2022-09-30T06:34:56;3.70;99.90
5059;DHT22;2548;52.050;11.036;2022-09-30T06:37:24;3.90;99.90
5059;DHT22;2548;52.050;11.036;2022-09-30T06:39:51;4.00;99.90
5059;DHT22;2548;52.050;11.036;2022-09-30T06:42:18;4.10;99.90
5059;DHT22;2548;52.050;11.036;2022-09-30T06:44:49;4.10;99.90
5059;DHT22;2548;52.050;11.036;2022-09-30T06:47:16;4.20;99.90
5059;DHT22;2548;52.050;11.036;2022-09-30T06:49:44;4.20;99.90
5059;DHT22;2548;52.050;11.036;2022-09-30T06:52:11;4.30;99.90
5059;DHT22;2548;52.050;11.036;2022-09-30T06:54:39;4.40;99.90
5059;DHT22;2548;52.050;11.036;2022-09-30T06:57:08;4.50;99.90
5059;DHT22;2548;52.050;11.036;2022-09-30T06:59:36;4.60;99.90
5059;DHT22;2548;52.050;11.036;2022-09-30T07:02:04;4.70;99.90
5059;DHT22;2548;52.050;11.036;2022-09-30T07:04:32;4.80;99.90
5059;DHT22;2548;52.050;11.036;2022-09-30T07:06:59;4.90;99.90
5059;DHT22;2548;52.050;11.036;2022-09-30T07:09:28;5.00;99.90
5059;DHT22;2548;52.050;11.036;2022-09-30T07:11:55;5.20;99.90
5059;DHT22;2548;52.050;11.036;2022-09-30T07:14:22;5.30;99.90
5059;DHT22;2548;52.050;11.036;2022-09-30T07:16:50;5.30;99.90
5059;DHT22;2548;52.050;11.036;2022-09-30T07:19:20;5.50;99.90
5059;DHT22;2548;52.050;11.036;2022-09-30T07:21:47;5.60;99.90
5059;DHT22;2548;52.050;11.036;2022-09-30T07:24:16;5.70;99.90
5059;DHT22;2548;52.050;11.036;2022-09-30T07:26:44;5.90;99.90
5059;DHT22;2548;52.050;11.036;2022-09-30T07:29:11;6.00;99.90
5059;DHT22;2548;52.050;11.036;2022-09-30T07:31:39;6.10;99.90
5059;DHT22;2548;52.050;11.036;2022-09-30T07:34:08;6.20;99.90
5059;DHT22;2548;52.050;11.036;2022-09-30T07:36:38;6.30;99.90
5059;DHT22;2548;52.050;11.036;2022-09-30T07:39:08;6.50;99.90
5059;DHT22;2548;52.050;11.036;2022-09-30T07:41:37;6.60;99.90
5059;DHT22;2548;52.050;11.036;2022-09-30T07:44:08;6.80;99.90
5059;DHT22;2548;52.050;11.036;2022-09-30T07:46:40;6.90;99.90
5059;DHT22;2548;52.050;11.036;2022-09-30T07:49:11;7.10;99.90
5059;DHT22;2548;52.050;11.036;2022-09-30T07:51:41;7.20;99.90
5059;DHT22;2548;52.050;11.036;2022-09-30T07:54:12;7.30;99.90
5059;DHT22;2548;52.050;11.036;2022-09-30T07:56:41;7.40;99.90
5059;DHT22;2548;52.050;11.036;2022-09-30T07:59:10;7.50;99.90
5059;DHT22;2548;52.050;11.036;2022-09-30T08:01:37;7.70;99.90
5059;DHT22;2548;52.050;11.036;2022-09-30T08:04:07;7.80;99.90
5059;DHT22;2548;52.050;11.036;2022-09-30T08:06:36;7.90;99.90
5059;DHT22;2548;52.050;11.036;2022-09-30T08:09:05;8.10;99.90
5059;DHT22;2548;52.050;11.036;2022-09-30T08:11:34;8.20;99.90
5059;DHT22;2548;52.050;11.036;2022-09-30T08:14:02;8.40;99.90
5059;DHT22;2548;52.050;11.036;2022-09-30T08:16:29;8.50;99.90
5059;DHT22;2548;52.050;11.036;2022-09-30T08:19:00;8.60;99.90
5059;DHT22;2548;52.050;11.036;2022-09-30T08:21:28;8.80;99.90
5059;DHT22;2548;52.050;11.036;2022-09-30T08:23:56;8.90;99.90
5059;DHT22;2548;52.050;11.036;2022-09-30T08:26:25;9.00;99.90
5059;DHT22;2548;52.050;11.036;2022-09-30T08:28:52;9.20;99.90
5059;DHT22;2548;52.050;11.036;2022-09-30T08:31:21;9.30;99.90
5059;DHT22;2548;52.050;11.036;2022-09-30T08:33:49;9.60;99.90
5059;DHT22;2548;52.050;11.036;2022-09-30T08:36:21;9.80;99.90
5059;DHT22;2548;52.050;11.036;2022-09-30T08:38:49;9.90;99.90
5059;DHT22;2548;52.050;11.036;2022-09-30T08:41:31;10.10;99.90
5059;DHT22;2548;52.050;11.036;2022-09-30T08:44:10;10.10;99.90
5059;DHT22;2548;52.050;11.036;2022-09-30T08:46:45;10.30;99.90
5059;DHT22;2548;52.050;11.036;2022-09-30T08:49:35;10.40;99.90
5059;DHT22;2548;52.050;11.036;2022-09-30T08:52:12;10.50;99.90
5059;DHT22;2548;52.050;11.036;2022-09-30T08:54:44;10.60;99.90
5059;DHT22;2548;52.050;11.036;2022-09-30T08:57:14;10.80;99.90
5059;DHT22;2548;52.050;11.036;2022-09-30T08:59:44;10.90;99.90
5059;DHT22;2548;52.050;11.036;2022-09-30T09:02:17;11.10;99.90
5059;DHT22;2548;52.050;11.036;2022-09-30T09:04:47;11.30;99.90
5059;DHT22;2548;52.050;11.036;2022-09-30T09:07:27;11.40;99.90
5059;DHT22;2548;52.050;11.036;2022-09-30T09:10:05;11.60;99.90
5059;DHT22;2548;52.050;11.036;2022-09-30T09:12:43;11.70;99.90
5059;DHT22;2548;52.050;11.036;2022-09-30T09:15:28;11.90;99.90
5059;DHT22;2548;52.050;11.036;2022-09-30T09:18:06;12.10;99.90
5059;DHT22;2548;52.050;11.036;2022-09-30T09:20:39;12.30;99.90
5059;DHT22;2548;52.050;11.036;2022-09-30T09:23:09;12.50;99.90
5059;DHT22;2548;52.050;11.036;2022-09-30T09:25:38;12.60;99.90
5059;DHT22;2548;52.050;11.036;2022-09-30T09:28:14;12.80;99.90
5059;DHT22;2548;52.050;11.036;2022-09-30T09:33:18;13.00;99.90
5059;DHT22;2548;52.050;11.036;2022-09-30T09:35:52;13.20;99.90
5059;DHT22;2548;52.050;11.036;2022-09-30T09:38:26;13.30;99.90
5059;DHT22;2548;52.050;11.036;2022-09-30T09:41:15;13.40;99.90
5059;DHT22;2548;52.050;11.036;2022-09-30T09:43:54;13.60;99.90
5059;DHT22;2548;52.050;11.036;2022-09-30T09:46:25;13.70;99.90
5059;DHT22;2548;52.050;11.036;2022-09-30T09:49:26;13.90;99.90
5059;DHT22;2548;52.050;11.036;2022-09-30T09:52:04;14.00;99.90
5059;DHT22;2548;52.050;11.036;2022-09-30T09:54:40;14.10;99.90
5059;DHT22;2548;52.050;11.036;2022-09-30T09:57:09;14.20;99.90
5059;DHT22;2548;52.050;11.036;2022-09-30T09:59:54;14.30;99.90
5059;DHT22;2548;52.050;11.036;2022-09-30T10:02:25;14.40;99.90
5059;DHT22;2548;52.050;11.036;2022-09-30T10:04:53;14.50;99.90
5059;DHT22;2548;52.050;11.036;2022-09-30T10:07:26;14.70;99.90
5059;DHT22;2548;52.050;11.036;2022-09-30T10:10:15;14.70;99.90
5059;DHT22;2548;52.050;11.036;2022-09-30T10:12:44;14.90;99.90
5059;DHT22;2548;52.050;11.036;2022-09-30T10:15:21;15.00;99.90
5059;DHT22;2548;52.050;11.036;2022-09-30T10:17:51;15.10;99.90
5059;DHT22;2548;52.050;11.036;2022-09-30T10:20:24;15.20;99.90
5059;DHT22;2548;52.050;11.036;2022-09-30T10:23:00;15.40;99.90
5059;DHT22;2548;52.050;11.036;2022-09-30T10:25:28;15.50;99.90
5059;DHT22;2548;52.050;11.036;2022-09-30T10:27:57;15.50;99.90
5059;DHT22;2548;52.050;11.036;2022-09-30T10:30:42;15.60;99.90
5059;DHT22;2548;52.050;11.036;2022-09-30T10:33:19;15.60;99.90
5059;DHT22;2548;52.050;11.036;2022-09-30T10:35:59;15.70;99.90
5059;DHT22;2548;52.050;11.036;2022-09-30T10:38:27;15.70;99.90
5059;DHT22;2548;52.050;11.036;2022-09-30T10:40:57;15.70;99.90
5059;DHT22;2548;52.050;11.036;2022-09-30T10:43:28;15.80;99.90
5059;DHT22;2548;52.050;11.036;2022-09-30T10:45:58;15.80;99.90
5059;DHT22;2548;52.050;11.036;2022-09-30T10:48:32;15.90;99.90
5059;DHT22;2548;52.050;11.036;2022-09-30T10:51:00;16.00;99.90
5059;DHT22;2548;52.050;11.036;2022-09-30T10:53:29;16.00;99.90
5059;DHT22;2548;52.050;11.036;2022-09-30T10:55:58;16.10;99.90
5059;DHT22;2548;52.050;11.036;2022-09-30T10:58:32;16.20;99.90
5059;DHT22;2548;52.050;11.036;2022-09-30T11:01:14;16.20;99.90
5059;DHT22;2548;52.050;11.036;2022-09-30T11:03:51;16.30;99.90
5059;DHT22;2548;52.050;11.036;2022-09-30T11:06:19;16.40;99.90
5059;DHT22;2548;52.050;11.036;2022-09-30T11:08:55;16.40;99.90
5059;DHT22;2548;52.050;11.036;2022-09-30T11:11:26;16.50;99.90
5059;DHT22;2548;52.050;11.036;2022-09-30T11:13:58;16.50;99.90
5059;DHT22;2548;52.050;11.036;2022-09-30T11:16:35;16.60;99.90
5059;DHT22;2548;52.050;11.036;2022-09-30T11:19:08;16.70;99.90
5059;DHT22;2548;52.050;11.036;2022-09-30T11:21:41;16.60;99.90
5059;DHT22;2548;52.050;11.036;2022-09-30T11:24:19;16.70;99.90
5059;DHT22;2548;52.050;11.036;2022-09-30T11:26:58;16.70;99.90
5059;DHT22;2548;52.050;11.036;2022-09-30T11:29:42;16.70;99.90
5059;DHT22;2548;52.050;11.036;2022-09-30T11:32:27;16.80;99.90
5059;DHT22;2548;52.050;11.036;2022-09-30T11:35:06;16.90;99.90
5059;DHT22;2548;52.050;11.036;2022-09-30T11:37:51;17.00;99.90
5059;DHT22;2548;52.050;11.036;2022-09-30T11:40:29;17.00;99.90
5059;DHT22;2548;52.050;11.036;2022-09-30T11:43:13;17.10;99.90
5059;DHT22;2548;52.050;11.036;2022-09-30T11:46:01;17.10;99.90
5059;DHT22;2548;52.050;11.036;2022-09-30T11:48:43;17.10;99.90
5059;DHT22;2548;52.050;11.036;2022-09-30T11:51:18;17.20;99.90
5059;DHT22;2548;52.050;11.036;2022-09-30T11:53:55;17.40;99.90
5059;DHT22;2548;52.050;11.036;2022-09-30T11:56:42;17.40;99.90
5059;DHT22;2548;52.050;11.036;2022-09-30T11:59:15;17.30;99.90
5059;DHT22;2548;52.050;11.036;2022-09-30T12:01:47;17.40;99.90
5059;DHT22;2548;52.050;11.036;2022-09-30T12:04:21;17.40;99.90
5059;DHT22;2548;52.050;11.036;2022-09-30T12:06:54;17.30;99.90
5059;DHT22;2548;52.050;11.036;2022-09-30T12:09:25;17.00;99.90
5059;DHT22;2548;52.050;11.036;2022-09-30T12:11:56;16.60;99.90
5059;DHT22;2548;52.050;11.036;2022-09-30T12:14:29;16.40;99.90
5059;DHT22;2548;52.050;11.036;2022-09-30T12:17:02;16.10;99.90
5059;DHT22;2548;52.050;11.036;2022-09-30T12:19:36;15.90;99.90
5059;DHT22;2548;52.050;11.036;2022-09-30T12:22:12;15.80;99.90
5059;DHT22;2548;52.050;11.036;2022-09-30T12:24:41;15.60;99.90
5059;DHT22;2548;52.050;11.036;2022-09-30T12:27:15;15.40;99.90
5059;DHT22;2548;52.050;11.036;2022-09-30T12:29:51;15.50;99.90
5059;DHT22;2548;52.050;11.036;2022-09-30T12:33:14;15.40;99.90
5059;DHT22;2548;52.050;11.036;2022-09-30T12:36:02;15.40;99.90
5059;DHT22;2548;52.050;11.036;2022-09-30T12:38:45;15.40;99.90
5059;DHT22;2548;52.050;11.036;2022-09-30T12:41:29;15.50;99.90
5059;DHT22;2548;52.050;11.036;2022-09-30T12:47:13;16.30;99.90
5059;DHT22;2548;52.050;11.036;2022-09-30T12:49:42;16.70;99.90
5059;DHT22;2548;52.050;11.036;2022-09-30T12:52:16;17.10;99.90
5059;DHT22;2548;52.050;11.036;2022-09-30T12:54:49;17.50;99.90
5059;DHT22;2548;52.050;11.036;2022-09-30T12:57:20;17.80;99.90
5059;DHT22;2548;52.050;11.036;2022-09-30T12:59:52;17.90;99.90
5059;DHT22;2548;52.050;11.036;2022-09-30T13:02:29;17.90;99.90
5059;DHT22;2548;52.050;11.036;2022-09-30T13:08:15;18.00;99.90
5059;DHT22;2548;52.050;11.036;2022-09-30T13:10:56;17.90;99.90
5059;DHT22;2548;52.050;11.036;2022-09-30T13:13:25;17.50;99.90
5059;DHT22;2548;52.050;11.036;2022-09-30T13:15:56;17.20;99.90
5059;DHT22;2548;52.050;11.036;2022-09-30T13:18:59;17.10;99.90
5059;DHT22;2548;52.050;11.036;2022-09-30T13:21:27;16.90;99.90
5059;DHT22;2548;52.050;11.036;2022-09-30T13:23:56;16.70;99.90
5059;DHT22;2548;52.050;11.036;2022-09-30T13:26:36;16.50;99.90
5059;DHT22;2548;52.050;11.036;2022-09-30T13:29:26;16.40;99.90
5059;DHT22;2548;52.050;11.036;2022-09-30T13:32:04;16.20;99.90
5059;DHT22;2548;52.050;11.036;2022-09-30T13:34:33;16.10;99.90
5059;DHT22;2548;52.050;11.036;2022-09-30T13:37:37;16.00;99.90
5059;DHT22;2548;52.050;11.036;2022-09-30T13:40:15;15.90;99.90
5059;DHT22;2548;52.050;11.036;2022-09-30T13:42:50;16.00;99.90
5059;DHT22;2548;52.050;11.036;2022-09-30T13:45:24;16.30;99.90
5059;DHT22;2548;52.050;11.036;2022-09-30T13:48:01;16.60;99.90
5059;DHT22;2548;52.050;11.036;2022-09-30T13:50:36;17.00;99.90
5059;DHT22;2548;52.050;11.036;2022-09-30T13:53:21;17.20;99.90
5059;DHT22;2548;52.050;11.036;2022-09-30T13:55:52;17.30;99.90
5059;DHT22;2548;52.050;11.036;2022-09-30T13:58:41;17.40;99.90
5059;DHT22;2548;52.050;11.036;2022-09-30T14:01:17;17.50;99.90
5059;DHT22;2548;52.050;11.036;2022-09-30T14:04:03;17.60;99.90
5059;DHT22;2548;52.050;11.036;2022-09-30T14:06:45;17.70;99.90
5059;DHT22;2548;52.050;11.036;2022-09-30T14:09:28;17.80;99.90
5059;DHT22;2548;52.050;11.036;2022-09-30T14:12:28;17.80;99.90
5059;DHT22;2548;52.050;11.036;2022-09-30T14:18:36;17.80;99.90
5059;DHT22;2548;52.050;11.036;2022-09-30T14:21:28;17.70;99.90
5059;DHT22;2548;52.050;11.036;2022-09-30T14:23:58;17.60;99.90
5059;DHT22;2548;52.050;11.036;2022-09-30T14:26:39;17.60;99.90
5059;DHT22;2548;52.050;11.036;2022-09-30T14:29:17;17.50;99.90
5059;DHT22;2548;52.050;11.036;2022-09-30T14:31:47;17.50;99.90
5059;DHT22;2548;52.050;11.036;2022-09-30T14:34:16;17.50;99.90
5059;DHT22;2548;52.050;11.036;2022-09-30T14:36:46;17.40;99.90
5059;DHT22;2548;52.050;11.036;2022-09-30T14:39:19;17.30;99.90
5059;DHT22;2548;52.050;11.036;2022-09-30T14:41:49;17.20;99.90
5059;DHT22;2548;52.050;11.036;2022-09-30T14:44:19;17.20;99.90
5059;DHT22;2548;52.050;11.036;2022-09-30T14:46:49;17.20;99.90
5059;DHT22;2548;52.050;11.036;2022-09-30T14:49:19;17.10;99.90
5059;DHT22;2548;52.050;11.036;2022-09-30T14:51:49;17.00;99.90
5059;DHT22;2548;52.050;11.036;2022-09-30T14:54:18;17.00;99.90
5059;DHT22;2548;52.050;11.036;2022-09-30T14:56:46;16.90;99.90
5059;DHT22;2548;52.050;11.036;2022-09-30T14:59:16;16.90;99.90
5059;DHT22;2548;52.050;11.036;2022-09-30T15:01:50;16.90;99.90
5059;DHT22;2548;52.050;11.036;2022-09-30T15:04:23;16.80;99.90
5059;DHT22;2548;52.050;11.036;2022-09-30T15:06:52;16.80;99.90
5059;DHT22;2548;52.050;11.036;2022-09-30T15:09:24;16.70;99.90
5059;DHT22;2548;52.050;11.036;2022-09-30T15:11:53;16.70;99.90
5059;DHT22;2548;52.050;11.036;2022-09-30T15:14:22;16.60;99.90
5059;DHT22;2548;52.050;11.036;2022-09-30T15:16:52;16.60;99.90
5059;DHT22;2548;52.050;11.036;2022-09-30T15:19:22;16.60;99.90
5059;DHT22;2548;52.050;11.036;2022-09-30T15:21:52;16.50;99.90
5059;DHT22;2548;52.050;11.036;2022-09-30T15:24:22;16.40;99.90
5059;DHT22;2548;52.050;11.036;2022-09-30T15:26:51;16.40;99.90
5059;DHT22;2548;52.050;11.036;2022-09-30T15:29:20;16.40;99.90
5059;DHT22;2548;52.050;11.036;2022-09-30T15:31:52;16.30;99.90
5059;DHT22;2548;52.050;11.036;2022-09-30T15:34:23;16.20;99.90
5059;DHT22;2548;52.050;11.036;2022-09-30T15:36:57;16.00;99.90
5059;DHT22;2548;52.050;11.036;2022-09-30T15:39:29;16.00;99.90
5059;DHT22;2548;52.050;11.036;2022-09-30T15:42:12;16.00;99.90
5059;DHT22;2548;52.050;11.036;2022-09-30T15:44:40;16.00;99.90
5059;DHT22;2548;52.050;11.036;2022-09-30T15:47:10;15.80;99.90
5059;DHT22;2548;52.050;11.036;2022-09-30T15:49:45;15.70;99.90
5059;DHT22;2548;52.050;11.036;2022-09-30T15:52:29;15.50;99.90
5059;DHT22;2548;52.050;11.036;2022-09-30T15:55:34;15.30;99.90
5059;DHT22;2548;52.050;11.036;2022-09-30T15:58:02;15.10;99.90
5059;DHT22;2548;52.050;11.036;2022-09-30T16:00:32;14.90;99.90
5059;DHT22;2548;52.050;11.036;2022-09-30T16:03:26;14.60;99.90
5059;DHT22;2548;52.050;11.036;2022-09-30T16:06:08;14.50;99.90
5059;DHT22;2548;52.050;11.036;2022-09-30T16:08:42;14.50;99.90
5059;DHT22;2548;52.050;11.036;2022-09-30T16:11:18;14.40;99.90
5059;DHT22;2548;52.050;11.036;2022-09-30T16:13:47;14.20;99.90
5059;DHT22;2548;52.050;11.036;2022-09-30T16:16:20;14.10;99.90
5059;DHT22;2548;52.050;11.036;2022-09-30T16:18:50;14.00;99.90
5059;DHT22;2548;52.050;11.036;2022-09-30T16:21:39;14.00;99.90
5059;DHT22;2548;52.050;11.036;2022-09-30T16:24:40;14.00;99.90
5059;DHT22;2548;52.050;11.036;2022-09-30T16:27:26;14.00;99.90
5059;DHT22;2548;52.050;11.036;2022-09-30T16:29:55;14.00;99.90
5059;DHT22;2548;52.050;11.036;2022-09-30T16:32:30;13.90;99.90
5059;DHT22;2548;52.050;11.036;2022-09-30T16:34:59;13.90;99.90
5059;DHT22;2548;52.050;11.036;2022-09-30T16:37:27;13.80;99.90
5059;DHT22;2548;52.050;11.036;2022-09-30T16:39:55;13.70;99.90
5059;DHT22;2548;52.050;11.036;2022-09-30T16:42:24;13.60;99.90
5059;DHT22;2548;52.050;11.036;2022-09-30T16:44:52;13.50;99.90